createdAt,value
2022-08-19T00:00:45.252Z,20.27
2022-08-19T00:01:45.205Z,20.27
2022-08-19T00:02:50.003Z,20.37
2022-08-19T00:03:45.186Z,20.37
2022-08-19T00:04:45.206Z,20.35
2022-08-19T00:05:45.170Z,20.35
2022-08-19T00:06:45.203Z,20.34
2022-08-19T00:07:45.147Z,20.38
2022-08-19T00:08:45.141Z,20.40
2022-08-19T00:09:45.132Z,20.30
2022-08-19T00:10:45.119Z,20.30
2022-08-19T00:11:45.139Z,20.34
2022-08-19T00:12:46.905Z,20.40
2022-08-19T00:13:45.089Z,20.38
2022-08-19T00:14:45.076Z,20.35
2022-08-19T00:15:45.073Z,20.31
2022-08-19T00:16:45.063Z,20.40
2022-08-19T00:17:45.081Z,20.38
2022-08-19T00:18:45.043Z,20.38
2022-08-19T00:19:45.024Z,20.40
2022-08-19T00:20:45.020Z,20.38
2022-08-19T00:21:45.016Z,20.25
2022-08-19T00:22:45.035Z,20.15
2022-08-19T00:23:44.993Z,20.17
2022-08-19T00:24:50.891Z,20.19
2022-08-19T00:25:48.590Z,20.20
2022-08-19T00:26:44.967Z,20.17
2022-08-19T00:27:45.023Z,20.17
2022-08-19T00:28:44.943Z,20.12
2022-08-19T00:29:44.937Z,20.12
2022-08-19T00:30:44.931Z,20.19
2022-08-19T00:31:44.920Z,20.08
2022-08-19T00:32:44.905Z,20.13
2022-08-19T00:33:44.941Z,20.01
2022-08-19T00:34:44.887Z,20.15
2022-08-19T00:35:44.877Z,20.15
2022-08-19T00:36:44.881Z,20.19
2022-08-19T00:37:44.859Z,20.17
2022-08-19T00:38:44.894Z,20.19
2022-08-19T00:39:44.856Z,20.16
2022-08-19T00:40:44.833Z,20.19
2022-08-19T00:41:46.487Z,20.04
2022-08-19T00:42:44.805Z,20.15
2022-08-19T00:43:44.801Z,20.10
2022-08-19T00:44:44.805Z,20.15
2022-08-19T00:45:44.781Z,20.20
2022-08-19T00:46:44.772Z,20.19
2022-08-19T00:47:45.764Z,20.27
2022-08-19T00:48:44.755Z,20.25
2022-08-19T00:49:44.758Z,20.26
2022-08-19T00:50:51.890Z,20.30
2022-08-19T00:51:45.722Z,20.30
2022-08-19T00:52:44.711Z,20.20
2022-08-19T00:53:44.750Z,20.23
2022-08-19T00:54:44.697Z,20.23
2022-08-19T00:55:44.680Z,20.27
2022-08-19T00:56:44.672Z,20.26
2022-08-19T00:57:44.662Z,20.23
2022-08-19T00:58:44.684Z,20.31
2022-08-19T01:00:00.498Z,20.25
2022-08-19T01:00:45.635Z,20.26
2022-08-19T01:01:44.654Z,20.25
2022-08-19T01:02:44.614Z,20.27
2022-08-19T01:03:57.925Z,20.25
2022-08-19T01:04:45.613Z,20.26
2022-08-19T01:05:44.588Z,20.25
2022-08-19T01:06:44.572Z,20.27
2022-08-19T01:07:44.566Z,20.15
2022-08-19T01:08:44.558Z,20.17
2022-08-19T01:09:44.567Z,20.15
2022-08-19T01:10:44.539Z,20.07
2022-08-19T01:11:44.529Z,20.08
2022-08-19T01:12:44.524Z,20.04
2022-08-19T01:13:50.026Z,20.07
2022-08-19T01:14:45.545Z,20.00
2022-08-19T01:15:44.495Z,20.04
2022-08-19T01:16:44.482Z,20.02
2022-08-19T01:17:44.475Z,19.94
2022-08-19T01:18:44.469Z,20.04
2022-08-19T01:19:44.816Z,19.94
2022-08-19T01:20:44.447Z,20.07
2022-08-19T01:21:44.436Z,19.94
2022-08-19T01:22:44.421Z,19.94
2022-08-19T01:23:44.416Z,19.98
2022-08-19T01:24:49.574Z,20.08
2022-08-19T01:25:45.470Z,20.05
2022-08-19T01:26:44.387Z,19.95
2022-08-19T01:27:44.374Z,20.04
2022-08-19T01:28:44.366Z,20.04
2022-08-19T01:29:44.359Z,19.98
2022-08-19T01:30:44.610Z,20.00
2022-08-19T01:31:45.432Z,20.02
2022-08-19T01:32:44.441Z,20.05
2022-08-19T01:33:44.315Z,20.05
2022-08-19T01:34:44.302Z,20.12
2022-08-19T01:35:44.335Z,20.12
2022-08-19T01:36:44.286Z,20.07
2022-08-19T01:37:44.279Z,20.04
2022-08-19T01:38:44.644Z,20.12
2022-08-19T01:39:44.333Z,20.00
2022-08-19T01:40:44.277Z,20.01
2022-08-19T01:41:44.240Z,20.04
2022-08-19T01:42:44.226Z,20.08
2022-08-19T01:44:09.985Z,20.10
2022-08-19T01:44:45.207Z,20.04
2022-08-19T01:45:44.199Z,20.10
2022-08-19T01:46:44.203Z,20.10
2022-08-19T01:47:44.181Z,20.07
2022-08-19T01:48:45.170Z,20.04
2022-08-19T01:49:44.175Z,20.05
2022-08-19T01:50:44.165Z,20.01
2022-08-19T01:51:44.157Z,20.12
2022-08-19T01:52:44.136Z,20.07
2022-08-19T01:53:44.121Z,20.07
2022-08-19T01:54:44.112Z,20.01
2022-08-19T01:55:44.104Z,20.12
2022-08-19T01:56:44.113Z,20.05
2022-08-19T01:57:45.081Z,20.12
2022-08-19T01:58:44.071Z,20.04
2022-08-19T01:59:44.067Z,20.10
2022-08-19T02:00:44.055Z,20.08
2022-08-19T02:01:44.059Z,20.15
2022-08-19T02:02:44.297Z,20.15
2022-08-19T02:03:44.031Z,20.08
2022-08-19T02:04:44.013Z,20.23
2022-08-19T02:05:44.008Z,20.10
2022-08-19T02:06:43.999Z,20.05
2022-08-19T02:07:44.004Z,20.12
2022-08-19T02:08:43.979Z,20.17
2022-08-19T02:09:43.966Z,20.07
2022-08-19T02:10:43.959Z,19.94
2022-08-19T02:11:43.943Z,19.97
2022-08-19T02:12:43.981Z,20.00
2022-08-19T02:13:43.930Z,19.85
2022-08-19T02:14:43.916Z,19.83
2022-08-19T02:15:43.906Z,19.85
2022-08-19T02:16:43.889Z,19.85
2022-08-19T02:17:43.884Z,19.86
2022-08-19T02:18:43.892Z,19.87
2022-08-19T02:19:43.863Z,19.94
2022-08-19T02:20:43.856Z,20.00
2022-08-19T02:21:43.846Z,19.95
2022-08-19T02:22:43.838Z,19.95
2022-08-19T02:23:43.843Z,20.00
2022-08-19T02:24:43.818Z,19.90
2022-08-19T02:25:43.817Z,20.10
2022-08-19T02:26:43.801Z,20.01
2022-08-19T02:27:43.790Z,19.90
2022-08-19T02:28:43.817Z,19.92
2022-08-19T02:29:43.779Z,19.83
2022-08-19T02:30:43.759Z,19.82
2022-08-19T02:31:43.752Z,19.89
2022-08-19T02:32:44.814Z,19.83
2022-08-19T02:33:43.735Z,19.79
2022-08-19T02:34:43.727Z,19.83
2022-08-19T02:35:44.710Z,19.71
2022-08-19T02:36:43.697Z,19.70
2022-08-19T02:37:43.688Z,19.75
2022-08-19T02:38:47.029Z,19.65
2022-08-19T02:39:44.718Z,19.72
2022-08-19T02:40:43.657Z,19.71
2022-08-19T02:41:43.650Z,19.68
2022-08-19T02:42:43.642Z,19.79
2022-08-19T02:44:11.454Z,19.65
2022-08-19T02:44:44.633Z,19.76
2022-08-19T02:45:43.611Z,19.80
2022-08-19T02:46:43.600Z,19.70
2022-08-19T02:47:43.602Z,19.71
2022-08-19T02:48:43.577Z,19.72
2022-08-19T02:49:43.574Z,19.75
2022-08-19T02:50:53.348Z,19.71
2022-08-19T02:51:44.564Z,19.79
2022-08-19T02:52:43.546Z,19.82
2022-08-19T02:53:43.535Z,19.85
2022-08-19T02:54:43.524Z,19.82
2022-08-19T02:55:45.972Z,19.80
2022-08-19T02:56:43.505Z,19.76
2022-08-19T02:57:43.496Z,19.80
2022-08-19T02:58:43.494Z,19.72
2022-08-19T02:59:43.475Z,19.76
2022-08-19T03:00:43.496Z,19.75
2022-08-19T03:01:43.545Z,19.80
2022-08-19T03:02:43.448Z,19.72
2022-08-19T03:03:43.440Z,19.75
2022-08-19T03:04:43.428Z,19.80
2022-08-19T03:05:56.214Z,19.68
2022-08-19T03:06:44.409Z,19.76
2022-08-19T03:07:43.401Z,19.72
2022-08-19T03:08:43.389Z,19.75
2022-08-19T03:09:43.377Z,19.64
2022-08-19T03:10:43.366Z,19.53
2022-08-19T03:11:43.375Z,19.68
2022-08-19T03:12:43.349Z,19.64
2022-08-19T03:13:43.341Z,19.65
2022-08-19T03:14:43.328Z,19.60
2022-08-19T03:15:43.315Z,19.67
2022-08-19T03:16:43.318Z,19.62
2022-08-19T03:17:43.297Z,19.70
2022-08-19T03:18:43.283Z,19.75
2022-08-19T03:19:43.277Z,19.76
2022-08-19T03:20:43.267Z,19.72
2022-08-19T03:21:43.275Z,19.68
2022-08-19T03:22:43.244Z,19.80
2022-08-19T03:23:43.235Z,19.76
2022-08-19T03:24:43.222Z,19.76
2022-08-19T03:25:43.219Z,19.83
2022-08-19T03:26:43.248Z,19.87
2022-08-19T03:27:43.195Z,19.83
2022-08-19T03:28:43.201Z,19.80
2022-08-19T03:29:44.201Z,19.82
2022-08-19T03:30:43.660Z,19.79
2022-08-19T03:31:51.088Z,19.83
2022-08-19T03:32:45.314Z,19.82
2022-08-19T03:33:43.137Z,19.67
2022-08-19T03:34:43.127Z,19.71
2022-08-19T03:35:43.119Z,19.64
2022-08-19T03:36:43.108Z,19.68
2022-08-19T03:37:43.125Z,19.75
2022-08-19T03:38:43.158Z,19.72
2022-08-19T03:39:43.134Z,19.72
2022-08-19T03:40:43.073Z,19.75
2022-08-19T03:41:44.615Z,19.75
2022-08-19T03:42:56.774Z,19.70
2022-08-19T03:43:44.048Z,19.71
2022-08-19T03:44:43.035Z,19.76
2022-08-19T03:45:43.025Z,19.71
2022-08-19T03:46:44.615Z,19.72
2022-08-19T03:47:43.024Z,19.70
2022-08-19T03:50:08.870Z,19.75
2022-08-19T03:51:08.881Z,19.86
2022-08-19T03:52:08.878Z,19.89
2022-08-19T03:53:08.899Z,19.90
2022-08-19T03:54:08.866Z,19.83
2022-08-19T03:55:08.839Z,19.79
2022-08-19T03:56:08.841Z,19.76
2022-08-19T03:57:08.828Z,19.83
2022-08-19T03:58:08.820Z,19.76
2022-08-19T03:59:09.949Z,19.75
2022-08-19T04:00:13.421Z,19.67
2022-08-19T04:01:09.950Z,19.75
2022-08-19T04:02:09.941Z,19.68
2022-08-19T04:03:09.900Z,19.76
2022-08-19T04:04:09.908Z,19.62
2022-08-19T04:05:09.884Z,19.58
2022-08-19T04:06:09.870Z,19.58
2022-08-19T04:07:09.863Z,19.52
2022-08-19T04:08:13.749Z,19.49
2022-08-19T04:09:10.882Z,19.52
2022-08-19T04:10:10.698Z,19.57
2022-08-19T04:11:09.820Z,19.60
2022-08-19T04:12:09.813Z,19.64
2022-08-19T04:13:09.805Z,19.65
2022-08-19T04:14:09.809Z,19.64
2022-08-19T04:15:09.807Z,19.71
2022-08-19T04:16:09.777Z,19.61
2022-08-19T04:17:09.769Z,19.65
2022-08-19T04:18:09.760Z,19.67
2022-08-19T04:19:09.768Z,19.65
2022-08-19T04:20:09.754Z,19.67
2022-08-19T04:21:09.733Z,19.67
2022-08-19T04:22:09.763Z,19.72
2022-08-19T04:23:09.708Z,19.72
2022-08-19T04:24:09.714Z,19.75
2022-08-19T04:25:09.708Z,19.82
2022-08-19T04:26:09.678Z,19.89
2022-08-19T04:27:10.671Z,19.90
2022-08-19T04:28:09.663Z,19.82
2022-08-19T04:29:12.576Z,19.90
2022-08-19T04:30:10.660Z,19.95
2022-08-19T04:31:09.653Z,20.01
2022-08-19T04:32:09.965Z,19.90
2022-08-19T04:33:10.615Z,19.97
2022-08-19T04:34:09.612Z,19.89
2022-08-19T04:35:16.920Z,20.05
2022-08-19T04:36:10.605Z,20.02
2022-08-19T04:37:09.572Z,20.01
2022-08-19T04:38:09.565Z,19.97
2022-08-19T04:39:09.570Z,20.04
2022-08-19T04:40:09.728Z,20.07
2022-08-19T04:41:09.539Z,20.16
2022-08-19T04:42:09.528Z,20.10
2022-08-19T04:43:09.517Z,20.10
2022-08-19T04:44:09.524Z,20.08
2022-08-19T04:45:09.590Z,20.04
2022-08-19T04:46:09.491Z,20.08
2022-08-19T04:47:11.277Z,20.10
2022-08-19T04:48:27.289Z,20.07
2022-08-19T04:49:13.701Z,19.94
2022-08-19T04:50:09.456Z,19.82
2022-08-19T04:51:09.441Z,19.87
2022-08-19T04:52:09.466Z,19.79
2022-08-19T04:53:09.425Z,19.85
2022-08-19T04:54:09.420Z,19.80
2022-08-19T04:55:09.432Z,19.82
2022-08-19T04:56:09.404Z,19.79
2022-08-19T04:57:09.511Z,19.65
2022-08-19T04:58:09.380Z,19.72
2022-08-19T04:59:09.374Z,19.78
2022-08-19T05:00:09.383Z,19.76
2022-08-19T05:01:09.414Z,19.82
2022-08-19T05:02:09.361Z,19.83
2022-08-19T05:03:09.332Z,19.85
2022-08-19T05:04:09.328Z,19.83
2022-08-19T05:05:09.336Z,19.79
2022-08-19T05:06:09.305Z,19.83
2022-08-19T05:07:09.295Z,19.82
2022-08-19T05:08:09.290Z,19.83
2022-08-19T05:09:09.278Z,19.90
2022-08-19T05:10:09.280Z,19.95
2022-08-19T05:11:09.260Z,19.95
2022-08-19T05:12:09.249Z,20.05
2022-08-19T05:13:09.243Z,19.87
2022-08-19T05:14:09.248Z,19.80
2022-08-19T05:15:09.246Z,19.85
2022-08-19T05:16:09.203Z,19.82
2022-08-19T05:17:26.662Z,19.85
2022-08-19T05:18:11.187Z,19.94
2022-08-19T05:19:09.177Z,20.08
2022-08-19T05:20:09.230Z,20.04
2022-08-19T05:21:09.162Z,19.85
2022-08-19T05:22:09.151Z,19.55
2022-08-19T05:23:09.141Z,19.53
2022-08-19T05:24:10.133Z,19.32
2022-08-19T05:25:12.918Z,19.15
2022-08-19T05:26:10.150Z,19.16
2022-08-19T05:27:09.102Z,19.05
2022-08-19T05:28:09.087Z,19.07
2022-08-19T05:29:09.081Z,18.96
2022-08-19T05:30:09.107Z,19.12
2022-08-19T05:31:09.077Z,19.20
2022-08-19T05:32:09.052Z,19.24
2022-08-19T05:33:09.042Z,19.45
2022-08-19T05:34:18.457Z,19.57
2022-08-19T05:35:10.041Z,19.79
2022-08-19T05:36:09.034Z,19.86
2022-08-19T05:37:09.006Z,19.89
2022-08-19T05:38:08.998Z,20.00
2022-08-19T05:39:08.989Z,20.10
2022-08-19T05:40:09.183Z,20.01
2022-08-19T05:41:08.997Z,20.22
2022-08-19T05:42:08.958Z,20.23
2022-08-19T05:43:08.946Z,20.37
2022-08-19T05:44:08.939Z,20.41
2022-08-19T05:45:08.928Z,20.60
2022-08-19T05:46:08.948Z,20.63
2022-08-19T05:47:08.909Z,20.63
2022-08-19T05:48:08.898Z,20.64
2022-08-19T05:49:08.891Z,20.63
2022-08-19T05:50:08.880Z,20.78
2022-08-19T05:51:08.897Z,20.83
2022-08-19T05:52:08.861Z,20.82
2022-08-19T05:53:08.854Z,20.97
2022-08-19T05:54:08.842Z,21.15
2022-08-19T05:55:08.839Z,21.21
2022-08-19T05:56:08.839Z,21.30
2022-08-19T05:57:08.814Z,21.26
2022-08-19T05:58:08.829Z,21.36
2022-08-19T05:59:08.795Z,21.48
2022-08-19T06:00:08.783Z,21.46
2022-08-19T06:01:08.822Z,21.46
2022-08-19T06:02:08.802Z,21.52
2022-08-19T06:03:12.525Z,21.63
2022-08-19T06:04:08.749Z,21.75
2022-08-19T06:05:08.734Z,21.74
2022-08-19T06:06:08.773Z,21.90
2022-08-19T06:07:12.172Z,22.04
2022-08-19T06:08:08.704Z,22.12
2022-08-19T06:09:08.703Z,22.23
2022-08-19T06:10:08.697Z,22.17
2022-08-19T06:11:08.682Z,22.21
2022-08-19T06:12:08.691Z,22.36
2022-08-19T06:13:08.666Z,22.46
2022-08-19T06:14:09.650Z,22.46
2022-08-19T06:15:09.645Z,22.48
2022-08-19T06:16:08.635Z,22.63
2022-08-19T06:17:08.640Z,22.72
2022-08-19T06:18:08.617Z,22.75
2022-08-19T06:19:08.608Z,22.84
2022-08-19T06:20:08.606Z,22.96
2022-08-19T06:21:08.607Z,22.86
2022-08-19T06:22:08.648Z,23.09
2022-08-19T06:23:08.570Z,23.25
2022-08-19T06:24:08.559Z,23.31
2022-08-19T06:25:08.552Z,23.44
2022-08-19T06:26:08.544Z,23.53
2022-08-19T06:27:08.551Z,23.69
2022-08-19T06:28:15.934Z,23.74
2022-08-19T06:29:10.511Z,23.74
2022-08-19T06:30:09.499Z,24.12
2022-08-19T06:31:08.494Z,24.34
2022-08-19T06:32:08.512Z,24.48
2022-08-19T06:33:08.472Z,24.26
2022-08-19T06:34:08.477Z,24.04
2022-08-19T06:35:08.465Z,24.11
2022-08-19T06:36:08.443Z,24.04
2022-08-19T06:37:08.476Z,24.04
2022-08-19T06:38:08.433Z,24.19
2022-08-19T06:39:08.422Z,24.14
2022-08-19T06:40:08.453Z,24.18
2022-08-19T06:41:08.442Z,24.06
2022-08-19T06:42:10.310Z,24.30
2022-08-19T06:43:09.369Z,24.41
2022-08-19T06:44:08.390Z,24.29
2022-08-19T06:45:09.344Z,23.75
2022-08-19T06:46:08.346Z,23.18
2022-08-19T06:47:09.644Z,22.91
2022-08-19T06:48:09.342Z,23.37
2022-08-19T06:49:08.342Z,23.67
2022-08-19T06:50:08.318Z,23.90
2022-08-19T06:51:08.603Z,24.33
2022-08-19T06:52:08.290Z,24.83
2022-08-19T06:53:08.308Z,25.17
2022-08-19T06:54:08.417Z,25.34
2022-08-19T06:55:09.263Z,25.35
2022-08-19T06:56:08.252Z,25.26
2022-08-19T06:57:08.243Z,25.17
2022-08-19T06:58:08.272Z,24.90
2022-08-19T06:59:08.221Z,24.66
2022-08-19T07:00:12.244Z,24.59
2022-08-19T07:01:09.210Z,24.36
2022-08-19T07:02:08.234Z,24.08
2022-08-19T07:03:08.918Z,23.84
2022-08-19T07:04:09.171Z,23.71
2022-08-19T07:05:08.165Z,23.54
2022-08-19T07:06:09.807Z,23.54
2022-08-19T07:07:19.707Z,23.45
2022-08-19T07:08:09.160Z,23.49
2022-08-19T07:09:08.125Z,23.52
2022-08-19T07:10:08.115Z,23.39
2022-08-19T07:11:09.370Z,23.39
2022-08-19T07:12:08.095Z,23.38
2022-08-19T07:13:08.122Z,23.23
2022-08-19T07:14:19.068Z,23.12
2022-08-19T07:15:09.066Z,22.63
2022-08-19T07:16:08.067Z,22.45
2022-08-19T07:17:08.050Z,22.30
2022-08-19T07:18:08.069Z,21.99
2022-08-19T07:19:15.544Z,21.71
2022-08-19T07:20:09.462Z,21.45
2022-08-19T07:21:09.378Z,21.34
2022-08-19T07:22:08.001Z,21.30
2022-08-19T07:23:09.036Z,21.49
2022-08-19T07:24:08.007Z,21.71
2022-08-19T07:25:08.005Z,21.66
2022-08-19T07:26:07.965Z,21.45
2022-08-19T07:27:10.617Z,21.36
2022-08-19T07:28:08.941Z,21.53
2022-08-19T07:29:08.948Z,21.51
2022-08-19T07:30:07.922Z,21.53
2022-08-19T07:31:07.912Z,21.59
2022-08-19T07:32:07.927Z,21.58
2022-08-19T07:33:08.924Z,21.70
2022-08-19T07:34:07.897Z,21.48
2022-08-19T07:35:07.894Z,21.34
2022-08-19T07:36:07.865Z,21.56
2022-08-19T07:37:07.858Z,21.51
2022-08-19T07:38:07.853Z,21.67
2022-08-19T07:39:07.857Z,21.58
2022-08-19T07:40:07.948Z,21.66
2022-08-19T07:41:07.820Z,21.67
2022-08-19T07:42:07.871Z,21.81
2022-08-19T07:43:10.191Z,22.02
2022-08-19T07:44:08.819Z,22.20
2022-08-19T07:45:07.785Z,22.23
2022-08-19T07:47:07.760Z,22.29
2022-08-19T07:48:08.768Z,22.44
2022-08-19T07:49:07.775Z,22.57
2022-08-19T07:50:08.658Z,22.78
2022-08-19T07:51:07.723Z,22.76
2022-08-19T07:52:07.714Z,22.70
2022-08-19T07:53:07.707Z,22.48
2022-08-19T07:54:07.694Z,22.52
2022-08-19T07:55:07.705Z,22.44
2022-08-19T07:56:08.683Z,22.51
2022-08-19T07:57:07.699Z,22.38
2022-08-19T07:58:07.725Z,22.21
2022-08-19T07:59:07.735Z,22.15
2022-08-19T08:00:07.719Z,22.20
2022-08-19T08:01:07.632Z,22.19
2022-08-19T08:02:07.673Z,22.04
2022-08-19T08:03:07.619Z,21.91
2022-08-19T08:04:07.608Z,21.98
2022-08-19T08:05:07.625Z,21.91
2022-08-19T08:06:07.616Z,22.04
2022-08-19T08:07:07.575Z,22.11
2022-08-19T08:08:07.568Z,22.26
2022-08-19T08:09:07.575Z,22.23
2022-08-19T08:10:12.618Z,22.21
2022-08-19T08:11:08.538Z,22.45
2022-08-19T08:12:32.972Z,22.42
2022-08-19T08:13:11.035Z,22.46
2022-08-19T08:14:07.509Z,22.51
2022-08-19T08:15:08.570Z,22.60
2022-08-19T08:16:07.494Z,22.79
2022-08-19T08:17:10.863Z,22.82
2022-08-19T08:18:07.479Z,22.88
2022-08-19T08:19:14.755Z,23.07
2022-08-19T08:20:08.518Z,23.07
2022-08-19T08:21:07.444Z,23.06
2022-08-19T08:22:07.437Z,23.03
2022-08-19T08:23:07.436Z,23.12
2022-08-19T08:24:07.423Z,23.07
2022-08-19T08:25:07.408Z,23.01
2022-08-19T08:26:07.416Z,22.99
2022-08-19T08:27:11.088Z,22.91
2022-08-19T08:28:07.379Z,22.88
2022-08-19T08:29:12.261Z,22.99
2022-08-19T08:30:08.357Z,23.04
2022-08-19T08:31:09.418Z,23.01
2022-08-19T08:32:14.831Z,23.11
2022-08-19T08:33:08.380Z,23.03
2022-08-19T08:34:07.320Z,23.12
2022-08-19T08:35:07.309Z,23.16
2022-08-19T08:36:07.315Z,23.29
2022-08-19T08:37:07.289Z,23.47
2022-08-19T08:38:07.301Z,23.57
2022-08-19T08:39:07.267Z,23.63
2022-08-19T08:40:08.996Z,23.69
2022-08-19T08:41:08.276Z,23.71
2022-08-19T08:42:09.903Z,23.79
2022-08-19T08:43:07.264Z,23.78
2022-08-19T08:44:07.218Z,23.82
2022-08-19T08:45:07.250Z,23.84
2022-08-19T08:46:07.562Z,23.89
2022-08-19T08:47:07.922Z,23.86
2022-08-19T08:48:07.182Z,23.82
2022-08-19T08:49:08.172Z,23.81
2022-08-19T08:50:07.158Z,23.78
2022-08-19T08:51:07.150Z,23.74
2022-08-19T08:52:07.158Z,23.63
2022-08-19T08:53:07.136Z,23.50
2022-08-19T08:54:07.124Z,23.26
2022-08-19T08:55:10.096Z,23.18
2022-08-19T08:56:08.103Z,23.07
2022-08-19T08:57:07.114Z,23.18
2022-08-19T08:58:07.092Z,23.18
2022-08-19T08:59:07.080Z,23.18
2022-08-19T09:00:07.068Z,23.11
2022-08-19T09:01:08.105Z,23.26
2022-08-19T09:02:07.062Z,23.16
2022-08-19T09:03:07.037Z,23.00
2022-08-19T09:04:07.043Z,23.04
2022-08-19T09:05:07.020Z,22.88
2022-08-19T09:06:12.087Z,22.67
2022-08-19T09:07:18.195Z,22.79
2022-08-19T09:08:07.986Z,22.70
2022-08-19T09:09:12.227Z,22.74
2022-08-19T09:10:07.973Z,22.89
2022-08-19T09:11:06.961Z,23.18
2022-08-19T09:12:06.990Z,23.34
2022-08-19T09:13:09.237Z,23.26
2022-08-19T09:14:06.934Z,23.18
2022-08-19T09:15:06.930Z,22.64
2022-08-19T09:16:06.916Z,22.89
2022-08-19T09:17:06.907Z,23.25
2022-08-19T09:18:07.048Z,23.37
2022-08-19T09:19:06.887Z,23.41
2022-08-19T09:20:09.176Z,23.52
2022-08-19T09:21:06.867Z,23.67
2022-08-19T09:22:06.862Z,23.75
2022-08-19T09:23:06.860Z,23.84
2022-08-19T09:24:06.840Z,23.67
2022-08-19T09:25:06.831Z,23.68
2022-08-19T09:26:06.821Z,23.59
2022-08-19T09:27:08.411Z,23.67
2022-08-19T09:28:15.077Z,23.68
2022-08-19T09:29:07.787Z,23.90
2022-08-19T09:30:06.790Z,23.96
2022-08-19T09:31:06.779Z,23.94
2022-08-19T09:32:06.761Z,23.89
2022-08-19T09:33:07.769Z,23.96
2022-08-19T09:34:06.741Z,24.04
2022-08-19T09:35:08.898Z,24.08
2022-08-19T09:36:08.694Z,24.14
2022-08-19T09:37:06.708Z,24.09
2022-08-19T09:38:06.743Z,24.30
2022-08-19T09:39:16.181Z,24.46
2022-08-19T09:40:07.744Z,24.51
2022-08-19T09:41:06.689Z,24.37
2022-08-19T09:42:06.665Z,24.18
2022-08-19T09:43:10.064Z,24.09
2022-08-19T09:44:07.645Z,24.16
2022-08-19T09:45:10.212Z,24.37
2022-08-19T09:46:06.627Z,24.31
2022-08-19T09:47:06.617Z,24.48
2022-08-19T09:48:06.608Z,24.44
2022-08-19T09:49:06.952Z,24.21
2022-08-19T09:50:06.668Z,24.45
2022-08-19T09:51:06.580Z,24.37
2022-08-19T09:52:06.576Z,24.64
2022-08-19T09:53:06.862Z,24.15
2022-08-19T09:54:06.569Z,24.09
2022-08-19T09:55:07.212Z,24.14
2022-08-19T09:56:06.533Z,24.24
2022-08-19T09:57:07.666Z,24.19
2022-08-19T09:58:06.516Z,23.92
2022-08-19T09:59:06.528Z,23.97
2022-08-19T10:00:06.516Z,24.09
2022-08-19T10:01:06.560Z,24.09
2022-08-19T10:02:11.029Z,24.19
2022-08-19T10:03:07.205Z,24.11
2022-08-19T10:04:14.694Z,24.24
2022-08-19T10:05:08.456Z,24.05
2022-08-19T10:06:15.112Z,24.06
2022-08-19T10:07:07.512Z,24.16
2022-08-19T10:08:06.422Z,24.04
2022-08-19T10:09:09.025Z,24.15
2022-08-19T10:10:06.402Z,24.12
2022-08-19T10:11:28.747Z,24.24
2022-08-19T10:12:11.263Z,24.09
2022-08-19T10:13:06.369Z,24.05
2022-08-19T10:14:06.360Z,23.69
2022-08-19T10:15:06.383Z,23.89
2022-08-19T10:16:06.345Z,23.54
2022-08-19T10:17:19.258Z,23.64
2022-08-19T10:18:07.348Z,23.87
2022-08-19T10:19:06.317Z,23.97
2022-08-19T10:20:06.326Z,24.06
2022-08-19T10:21:06.299Z,24.00
2022-08-19T10:22:06.296Z,24.23
2022-08-19T10:23:06.282Z,24.36
2022-08-19T10:24:06.271Z,24.39
2022-08-19T10:25:06.275Z,24.45
2022-08-19T10:26:06.285Z,24.34
2022-08-19T10:27:06.246Z,24.14
2022-08-19T10:28:06.233Z,23.97
2022-08-19T10:29:06.225Z,24.14
2022-08-19T10:30:09.891Z,24.05
2022-08-19T10:31:06.201Z,24.09
2022-08-19T10:32:09.456Z,24.23
2022-08-19T10:33:10.853Z,24.33
2022-08-19T10:34:10.004Z,24.63
2022-08-19T10:35:06.246Z,24.12
2022-08-19T10:36:06.169Z,23.89
2022-08-19T10:37:06.144Z,23.97
2022-08-19T10:38:06.289Z,23.89
2022-08-19T10:39:06.124Z,24.06
2022-08-19T10:40:06.200Z,24.31
2022-08-19T10:41:06.106Z,24.39
2022-08-19T10:42:06.099Z,24.67
2022-08-19T10:43:06.093Z,24.87
2022-08-19T10:44:06.080Z,24.79
2022-08-19T10:45:06.108Z,24.80
2022-08-19T10:46:06.058Z,25.11
2022-08-19T10:47:17.596Z,25.27
2022-08-19T10:48:07.043Z,25.31
2022-08-19T10:49:07.033Z,25.54
2022-08-19T10:50:06.052Z,25.54
2022-08-19T10:51:06.014Z,25.61
2022-08-19T10:52:06.006Z,25.46
2022-08-19T10:53:08.112Z,25.42
2022-08-19T10:54:06.883Z,25.05
2022-08-19T10:55:08.675Z,24.94
2022-08-19T10:56:05.964Z,24.77
2022-08-19T10:57:05.953Z,24.87
2022-08-19T10:58:06.206Z,25.01
2022-08-19T10:59:05.937Z,25.01
2022-08-19T11:00:05.928Z,25.05
2022-08-19T11:01:06.000Z,25.22
2022-08-19T11:02:05.913Z,25.07
2022-08-19T11:03:05.898Z,25.17
2022-08-19T11:04:05.896Z,25.22
2022-08-19T11:05:12.726Z,25.02
2022-08-19T11:06:06.885Z,25.20
2022-08-19T11:07:05.862Z,25.39
2022-08-19T11:08:22.634Z,25.51
2022-08-19T11:09:06.842Z,25.64
2022-08-19T11:10:08.333Z,25.97
2022-08-19T11:11:05.839Z,25.78
2022-08-19T11:12:05.822Z,25.76
2022-08-19T11:13:05.805Z,25.90
2022-08-19T11:14:05.801Z,25.98
2022-08-19T11:15:05.786Z,26.19
2022-08-19T11:16:07.831Z,26.00
2022-08-19T11:17:06.767Z,25.35
2022-08-19T11:18:05.761Z,25.48
2022-08-19T11:19:06.748Z,25.82
2022-08-19T11:20:06.676Z,26.19
2022-08-19T11:21:05.760Z,26.59
2022-08-19T11:22:05.723Z,26.72
2022-08-19T11:23:05.718Z,26.49
2022-08-19T11:24:05.708Z,25.91
2022-08-19T11:25:05.701Z,25.82
2022-08-19T11:26:05.687Z,26.36
2022-08-19T11:27:05.692Z,26.72
2022-08-19T11:28:05.678Z,27.08
2022-08-19T11:29:05.661Z,27.30
2022-08-19T11:30:07.932Z,27.38
2022-08-19T11:31:05.651Z,27.43
2022-08-19T11:32:05.647Z,27.98
2022-08-19T11:33:05.623Z,27.91
2022-08-19T11:34:05.624Z,27.74
2022-08-19T11:35:05.604Z,27.98
2022-08-19T11:36:05.596Z,27.78
2022-08-19T11:37:05.607Z,27.90
2022-08-19T11:38:09.715Z,28.15
2022-08-19T11:39:06.571Z,28.33
2022-08-19T11:40:05.674Z,28.36
2022-08-19T11:41:05.551Z,28.13
2022-08-19T11:42:05.584Z,27.90
2022-08-19T11:43:05.551Z,28.28
2022-08-19T11:44:05.532Z,28.02
2022-08-19T11:45:05.513Z,27.87
2022-08-19T11:46:05.508Z,28.02
2022-08-19T11:47:08.842Z,28.48
2022-08-19T11:48:05.487Z,28.64
2022-08-19T11:49:05.473Z,28.88
2022-08-19T11:50:05.469Z,28.92
2022-08-19T11:51:05.451Z,28.57
2022-08-19T11:52:05.443Z,28.70
2022-08-19T11:53:05.803Z,28.74
2022-08-19T11:54:05.427Z,27.18
2022-08-19T11:55:05.418Z,26.64
2022-08-19T11:56:05.400Z,26.32
2022-08-19T11:57:05.398Z,26.59
2022-08-19T11:58:05.411Z,26.56
2022-08-19T11:59:05.381Z,27.15
2022-08-19T12:00:05.365Z,27.18
2022-08-19T12:01:05.369Z,27.39
2022-08-19T12:02:05.355Z,27.42
2022-08-19T12:03:05.383Z,26.88
2022-08-19T12:04:05.489Z,26.17
2022-08-19T12:05:09.032Z,26.12
2022-08-19T12:06:06.325Z,25.98
2022-08-19T12:07:05.308Z,25.98
2022-08-19T12:08:05.335Z,25.78
2022-08-19T12:09:05.286Z,25.76
2022-08-19T12:10:05.280Z,25.82
2022-08-19T12:11:05.265Z,25.69
2022-08-19T12:12:05.258Z,26.28
2022-08-19T12:13:05.255Z,26.91
2022-08-19T12:14:05.253Z,27.43
2022-08-19T12:15:05.229Z,27.87
2022-08-19T12:16:05.222Z,28.35
2022-08-19T12:17:05.212Z,28.33
2022-08-19T12:18:05.208Z,28.64
2022-08-19T12:19:05.307Z,29.03
2022-08-19T12:20:05.189Z,28.98
2022-08-19T12:21:05.177Z,29.27
2022-08-19T12:22:05.167Z,29.64
2022-08-19T12:23:05.158Z,29.69
2022-08-19T12:24:05.248Z,28.72
2022-08-19T12:25:05.136Z,29.02
2022-08-19T12:26:05.130Z,28.95
2022-08-19T12:27:05.133Z,29.02
2022-08-19T12:28:05.137Z,28.73
2022-08-19T12:29:05.131Z,28.27
2022-08-19T12:30:05.093Z,28.11
2022-08-19T12:31:05.086Z,27.48
2022-08-19T12:32:05.073Z,27.05
2022-08-19T12:33:05.061Z,27.12
2022-08-19T12:34:05.073Z,27.68
2022-08-19T12:35:05.047Z,27.98
2022-08-19T12:36:05.058Z,28.14
2022-08-19T12:37:05.027Z,28.20
2022-08-19T12:38:05.017Z,28.27
2022-08-19T12:39:05.025Z,28.25
2022-08-19T12:40:05.022Z,28.24
2022-08-19T12:41:04.991Z,28.51
2022-08-19T12:42:04.985Z,28.51
2022-08-19T12:43:04.970Z,28.33
2022-08-19T12:44:04.972Z,28.11
2022-08-19T12:45:04.952Z,27.95
2022-08-19T12:46:04.943Z,27.72
2022-08-19T12:47:04.934Z,27.83
2022-08-19T12:48:32.819Z,27.61
2022-08-19T12:49:17.495Z,27.48
2022-08-19T12:50:07.036Z,27.40
2022-08-19T12:51:05.897Z,27.08
2022-08-19T12:52:04.885Z,27.20
2022-08-19T12:53:04.879Z,27.31
2022-08-19T12:54:04.907Z,27.68
2022-08-19T12:55:04.861Z,27.93